sensor_id;sensor_type;location;lat;lon;timestamp;P1;durP1;ratioP1;P2;durP2;ratioP2
71288;SDS011;59068;52.502;9.860;2022-10-16T00:01:16;1.13;;;0.60;;
71288;SDS011;59068;52.502;9.860;2022-10-16T00:03:43;1.23;;;0.60;;
71288;SDS011;59068;52.502;9.860;2022-10-16T00:06:10;1.07;;;0.70;;
71288;SDS011;59068;52.502;9.860;2022-10-16T00:08:38;0.90;;;0.73;;
71288;SDS011;59068;52.502;9.860;2022-10-16T00:11:07;2.37;;;0.70;;
71288;SDS011;59068;52.502;9.860;2022-10-16T00:13:39;1.87;;;0.57;;
71288;SDS011;59068;52.502;9.860;2022-10-16T00:16:06;1.73;;;0.80;;
71288;SDS011;59068;52.502;9.860;2022-10-16T00:18:32;0.87;;;0.77;;
71288;SDS011;59068;52.502;9.860;2022-10-16T00:21:01;1.07;;;0.70;;
71288;SDS011;59068;52.502;9.860;2022-10-16T00:23:32;0.97;;;0.70;;
71288;SDS011;59068;52.502;9.860;2022-10-16T00:25:58;1.13;;;0.60;;
71288;SDS011;59068;52.502;9.860;2022-10-16T00:28:27;2.80;;;0.80;;
71288;SDS011;59068;52.502;9.860;2022-10-16T00:30:54;1.80;;;0.73;;
71288;SDS011;59068;52.502;9.860;2022-10-16T00:33:20;0.60;;;0.60;;
71288;SDS011;59068;52.502;9.860;2022-10-16T00:35:47;1.73;;;0.60;;
71288;SDS011;59068;52.502;9.860;2022-10-16T00:38:12;1.37;;;0.80;;
71288;SDS011;59068;52.502;9.860;2022-10-16T00:40:38;1.83;;;0.70;;
71288;SDS011;59068;52.502;9.860;2022-10-16T00:43:10;1.00;;;0.70;;
71288;SDS011;59068;52.502;9.860;2022-10-16T00:45:38;2.53;;;0.70;;
71288;SDS011;59068;52.502;9.860;2022-10-16T00:48:06;0.47;;;0.47;;
71288;SDS011;59068;52.502;9.860;2022-10-16T00:50:37;1.50;;;0.50;;
71288;SDS011;59068;52.502;9.860;2022-10-16T00:53:04;1.47;;;0.40;;
71288;SDS011;59068;52.502;9.860;2022-10-16T00:55:30;2.03;;;0.67;;
71288;SDS011;59068;52.502;9.860;2022-10-16T00:57:56;1.33;;;0.50;;
71288;SDS011;59068;52.502;9.860;2022-10-16T01:00:24;1.93;;;0.67;;
71288;SDS011;59068;52.502;9.860;2022-10-16T01:02:55;1.90;;;0.50;;
71288;SDS011;59068;52.502;9.860;2022-10-16T01:05:23;1.20;;;0.40;;
71288;SDS011;59068;52.502;9.860;2022-10-16T01:10:52;1.90;;;0.60;;
71288;SDS011;59068;52.502;9.860;2022-10-16T01:13:34;2.90;;;0.83;;
71288;SDS011;59068;52.502;9.860;2022-10-16T01:18:52;2.37;;;0.57;;
71288;SDS011;59068;52.502;9.860;2022-10-16T01:21:26;0.60;;;0.60;;
71288;SDS011;59068;52.502;9.860;2022-10-16T01:29:16;0.87;;;0.70;;
71288;SDS011;59068;52.502;9.860;2022-10-16T01:31:59;1.70;;;0.80;;
71288;SDS011;59068;52.502;9.860;2022-10-16T01:34:38;0.60;;;0.57;;
71288;SDS011;59068;52.502;9.860;2022-10-16T01:37:12;0.57;;;0.50;;
71288;SDS011;59068;52.502;9.860;2022-10-16T01:39:42;2.20;;;0.80;;
71288;SDS011;59068;52.502;9.860;2022-10-16T01:42:11;1.03;;;0.70;;
71288;SDS011;59068;52.502;9.860;2022-10-16T01:44:41;0.60;;;0.60;;
71288;SDS011;59068;52.502;9.860;2022-10-16T01:47:08;0.77;;;0.53;;
71288;SDS011;59068;52.502;9.860;2022-10-16T01:49:36;2.70;;;0.60;;
71288;SDS011;59068;52.502;9.860;2022-10-16T01:52:08;2.20;;;0.70;;
71288;SDS011;59068;52.502;9.860;2022-10-16T01:54:36;1.33;;;0.70;;
71288;SDS011;59068;52.502;9.860;2022-10-16T01:57:03;0.80;;;0.63;;
71288;SDS011;59068;52.502;9.860;2022-10-16T01:59:32;0.70;;;0.70;;
71288;SDS011;59068;52.502;9.860;2022-10-16T02:02:01;0.83;;;0.77;;
71288;SDS011;59068;52.502;9.860;2022-10-16T02:04:34;0.60;;;0.60;;
71288;SDS011;59068;52.502;9.860;2022-10-16T02:07:06;1.10;;;0.60;;
71288;SDS011;59068;52.502;9.860;2022-10-16T02:09:36;1.73;;;0.70;;
71288;SDS011;59068;52.502;9.860;2022-10-16T02:12:07;1.20;;;0.63;;
71288;SDS011;59068;52.502;9.860;2022-10-16T02:14:38;1.17;;;0.60;;
71288;SDS011;59068;52.502;9.860;2022-10-16T02:17:10;1.07;;;0.63;;
71288;SDS011;59068;52.502;9.860;2022-10-16T02:19:39;0.93;;;0.70;;
71288;SDS011;59068;52.502;9.860;2022-10-16T02:22:05;1.80;;;0.77;;
71288;SDS011;59068;52.502;9.860;2022-10-16T02:33:11;1.47;;;0.97;;
71288;SDS011;59068;52.502;9.860;2022-10-16T02:35:40;0.90;;;0.90;;
71288;SDS011;59068;52.502;9.860;2022-10-16T02:38:06;0.90;;;0.73;;
71288;SDS011;59068;52.502;9.860;2022-10-16T02:40:34;1.37;;;0.90;;
71288;SDS011;59068;52.502;9.860;2022-10-16T02:43:00;1.00;;;0.90;;
71288;SDS011;59068;52.502;9.860;2022-10-16T02:45:26;1.30;;;0.80;;
71288;SDS011;59068;52.502;9.860;2022-10-16T02:47:52;2.87;;;0.93;;
71288;SDS011;59068;52.502;9.860;2022-10-16T02:50:19;3.00;;;0.90;;
71288;SDS011;59068;52.502;9.860;2022-10-16T02:52:45;1.80;;;0.90;;
71288;SDS011;59068;52.502;9.860;2022-10-16T02:55:10;2.33;;;0.90;;
71288;SDS011;59068;52.502;9.860;2022-10-16T02:57:35;1.33;;;0.80;;
71288;SDS011;59068;52.502;9.860;2022-10-16T03:00:03;1.80;;;1.23;;
71288;SDS011;59068;52.502;9.860;2022-10-16T03:02:30;1.10;;;1.00;;
71288;SDS011;59068;52.502;9.860;2022-10-16T03:04:56;2.37;;;0.90;;
71288;SDS011;59068;52.502;9.860;2022-10-16T03:07:22;1.77;;;0.83;;
71288;SDS011;59068;52.502;9.860;2022-10-16T03:09:49;1.07;;;0.83;;
71288;SDS011;59068;52.502;9.860;2022-10-16T03:12:15;2.00;;;1.10;;
71288;SDS011;59068;52.502;9.860;2022-10-16T03:14:41;1.43;;;1.20;;
71288;SDS011;59068;52.502;9.860;2022-10-16T03:17:07;1.43;;;0.83;;
71288;SDS011;59068;52.502;9.860;2022-10-16T03:19:33;1.23;;;1.03;;
71288;SDS011;59068;52.502;9.860;2022-10-16T03:21:59;2.30;;;0.80;;
71288;SDS011;59068;52.502;9.860;2022-10-16T03:24:25;1.13;;;1.00;;
71288;SDS011;59068;52.502;9.860;2022-10-16T03:26:51;0.97;;;0.93;;
71288;SDS011;59068;52.502;9.860;2022-10-16T03:29:17;2.03;;;0.90;;
71288;SDS011;59068;52.502;9.860;2022-10-16T03:31:43;1.77;;;1.03;;
71288;SDS011;59068;52.502;9.860;2022-10-16T03:34:09;1.47;;;1.20;;
71288;SDS011;59068;52.502;9.860;2022-10-16T03:36:36;2.70;;;1.10;;
71288;SDS011;59068;52.502;9.860;2022-10-16T03:39:02;1.30;;;1.20;;
71288;SDS011;59068;52.502;9.860;2022-10-16T03:41:29;1.40;;;1.30;;
71288;SDS011;59068;52.502;9.860;2022-10-16T03:43:55;1.60;;;1.40;;
71288;SDS011;59068;52.502;9.860;2022-10-16T03:46:21;1.90;;;1.20;;
71288;SDS011;59068;52.502;9.860;2022-10-16T03:48:48;1.90;;;1.60;;
71288;SDS011;59068;52.502;9.860;2022-10-16T03:51:15;1.77;;;1.33;;
71288;SDS011;59068;52.502;9.860;2022-10-16T03:53:40;1.47;;;1.33;;
71288;SDS011;59068;52.502;9.860;2022-10-16T03:56:06;1.77;;;1.40;;
71288;SDS011;59068;52.502;9.860;2022-10-16T03:58:32;3.53;;;1.40;;
71288;SDS011;59068;52.502;9.860;2022-10-16T04:00:58;1.63;;;1.27;;
71288;SDS011;59068;52.502;9.860;2022-10-16T04:03:24;2.77;;;1.30;;
71288;SDS011;59068;52.502;9.860;2022-10-16T04:05:50;1.57;;;1.30;;
71288;SDS011;59068;52.502;9.860;2022-10-16T04:08:17;2.93;;;1.63;;
71288;SDS011;59068;52.502;9.860;2022-10-16T04:10:44;2.60;;;1.50;;
71288;SDS011;59068;52.502;9.860;2022-10-16T04:13:11;2.77;;;1.30;;
71288;SDS011;59068;52.502;9.860;2022-10-16T04:15:38;2.00;;;1.40;;
71288;SDS011;59068;52.502;9.860;2022-10-16T04:18:04;1.63;;;1.10;;
71288;SDS011;59068;52.502;9.860;2022-10-16T04:20:30;2.37;;;1.47;;
71288;SDS011;59068;52.502;9.860;2022-10-16T04:22:57;1.90;;;1.10;;
71288;SDS011;59068;52.502;9.860;2022-10-16T04:25:22;1.90;;;1.30;;
71288;SDS011;59068;52.502;9.860;2022-10-16T04:27:48;2.23;;;1.30;;
71288;SDS011;59068;52.502;9.860;2022-10-16T04:30:13;1.93;;;1.37;;
71288;SDS011;59068;52.502;9.860;2022-10-16T04:32:39;2.10;;;1.30;;
71288;SDS011;59068;52.502;9.860;2022-10-16T04:35:05;1.90;;;1.60;;
71288;SDS011;59068;52.502;9.860;2022-10-16T04:37:32;2.23;;;1.60;;
71288;SDS011;59068;52.502;9.860;2022-10-16T04:39:57;3.23;;;1.40;;
71288;SDS011;59068;52.502;9.860;2022-10-16T04:42:23;1.97;;;1.53;;
71288;SDS011;59068;52.502;9.860;2022-10-16T04:44:49;2.87;;;1.77;;
71288;SDS011;59068;52.502;9.860;2022-10-16T04:47:16;5.57;;;2.17;;
71288;SDS011;59068;52.502;9.860;2022-10-16T04:49:43;1.93;;;1.50;;
71288;SDS011;59068;52.502;9.860;2022-10-16T04:52:09;3.93;;;1.67;;
71288;SDS011;59068;52.502;9.860;2022-10-16T04:54:36;2.50;;;1.47;;
71288;SDS011;59068;52.502;9.860;2022-10-16T04:57:01;3.80;;;1.70;;
71288;SDS011;59068;52.502;9.860;2022-10-16T04:59:27;3.37;;;1.90;;
71288;SDS011;59068;52.502;9.860;2022-10-16T05:01:54;3.27;;;1.83;;
71288;SDS011;59068;52.502;9.860;2022-10-16T05:04:19;2.27;;;1.60;;
71288;SDS011;59068;52.502;9.860;2022-10-16T05:06:44;3.33;;;2.07;;
71288;SDS011;59068;52.502;9.860;2022-10-16T05:09:11;3.40;;;1.90;;
71288;SDS011;59068;52.502;9.860;2022-10-16T05:11:36;2.70;;;2.10;;
71288;SDS011;59068;52.502;9.860;2022-10-16T05:14:02;2.30;;;1.83;;
71288;SDS011;59068;52.502;9.860;2022-10-16T05:16:29;2.43;;;2.23;;
71288;SDS011;59068;52.502;9.860;2022-10-16T05:18:56;2.63;;;2.03;;
71288;SDS011;59068;52.502;9.860;2022-10-16T05:21:22;2.33;;;1.97;;
71288;SDS011;59068;52.502;9.860;2022-10-16T05:23:48;2.13;;;1.97;;
71288;SDS011;59068;52.502;9.860;2022-10-16T05:26:14;5.17;;;2.60;;
71288;SDS011;59068;52.502;9.860;2022-10-16T05:28:40;2.17;;;1.97;;
71288;SDS011;59068;52.502;9.860;2022-10-16T05:31:05;5.20;;;2.33;;
71288;SDS011;59068;52.502;9.860;2022-10-16T05:33:32;2.47;;;2.27;;
71288;SDS011;59068;52.502;9.860;2022-10-16T05:36:03;2.93;;;2.57;;
71288;SDS011;59068;52.502;9.860;2022-10-16T05:38:29;2.07;;;1.97;;
71288;SDS011;59068;52.502;9.860;2022-10-16T05:40:55;2.10;;;2.00;;
71288;SDS011;59068;52.502;9.860;2022-10-16T05:43:22;4.30;;;1.90;;
71288;SDS011;59068;52.502;9.860;2022-10-16T05:45:54;4.83;;;2.20;;
71288;SDS011;59068;52.502;9.860;2022-10-16T05:48:22;2.40;;;2.20;;
71288;SDS011;59068;52.502;9.860;2022-10-16T05:50:48;3.23;;;2.60;;
71288;SDS011;59068;52.502;9.860;2022-10-16T05:53:14;4.10;;;2.40;;
71288;SDS011;59068;52.502;9.860;2022-10-16T05:55:40;4.30;;;2.43;;
71288;SDS011;59068;52.502;9.860;2022-10-16T05:58:06;4.47;;;2.50;;
71288;SDS011;59068;52.502;9.860;2022-10-16T06:00:33;3.07;;;2.23;;
71288;SDS011;59068;52.502;9.860;2022-10-16T06:02:58;3.07;;;2.40;;
71288;SDS011;59068;52.502;9.860;2022-10-16T06:05:24;2.67;;;2.03;;
71288;SDS011;59068;52.502;9.860;2022-10-16T06:07:50;2.63;;;1.90;;
71288;SDS011;59068;52.502;9.860;2022-10-16T06:10:17;2.33;;;2.13;;
71288;SDS011;59068;52.502;9.860;2022-10-16T06:12:43;2.13;;;1.97;;
71288;SDS011;59068;52.502;9.860;2022-10-16T06:15:09;3.63;;;2.23;;
71288;SDS011;59068;52.502;9.860;2022-10-16T06:17:35;3.37;;;2.23;;
71288;SDS011;59068;52.502;9.860;2022-10-16T06:20:01;2.30;;;2.10;;
71288;SDS011;59068;52.502;9.860;2022-10-16T06:22:27;2.33;;;2.13;;
71288;SDS011;59068;52.502;9.860;2022-10-16T06:24:53;2.23;;;2.00;;
71288;SDS011;59068;52.502;9.860;2022-10-16T06:27:18;2.50;;;1.83;;
71288;SDS011;59068;52.502;9.860;2022-10-16T06:29:45;2.30;;;2.10;;
71288;SDS011;59068;52.502;9.860;2022-10-16T06:32:11;2.40;;;2.10;;
71288;SDS011;59068;52.502;9.860;2022-10-16T06:34:37;4.10;;;2.03;;
71288;SDS011;59068;52.502;9.860;2022-10-16T06:37:05;4.37;;;2.30;;
71288;SDS011;59068;52.502;9.860;2022-10-16T06:39:31;2.40;;;2.20;;
71288;SDS011;59068;52.502;9.860;2022-10-16T06:41:58;2.33;;;2.10;;
71288;SDS011;59068;52.502;9.860;2022-10-16T06:44:23;2.37;;;2.13;;
71288;SDS011;59068;52.502;9.860;2022-10-16T06:46:50;2.10;;;2.00;;
71288;SDS011;59068;52.502;9.860;2022-10-16T06:49:16;3.93;;;2.30;;
71288;SDS011;59068;52.502;9.860;2022-10-16T06:51:47;2.40;;;2.13;;
71288;SDS011;59068;52.502;9.860;2022-10-16T06:54:14;4.07;;;2.30;;
71288;SDS011;59068;52.502;9.860;2022-10-16T06:56:41;2.53;;;2.33;;
71288;SDS011;59068;52.502;9.860;2022-10-16T06:59:06;2.63;;;2.00;;
71288;SDS011;59068;52.502;9.860;2022-10-16T07:01:33;3.23;;;1.97;;
71288;SDS011;59068;52.502;9.860;2022-10-16T07:04:00;2.70;;;2.03;;
71288;SDS011;59068;52.502;9.860;2022-10-16T07:06:26;2.20;;;1.97;;
71288;SDS011;59068;52.502;9.860;2022-10-16T07:08:53;3.10;;;2.40;;
71288;SDS011;59068;52.502;9.860;2022-10-16T07:11:20;2.40;;;1.87;;
71288;SDS011;59068;52.502;9.860;2022-10-16T07:13:48;3.97;;;1.80;;
71288;SDS011;59068;52.502;9.860;2022-10-16T07:16:14;3.10;;;1.87;;
71288;SDS011;59068;52.502;9.860;2022-10-16T07:18:45;1.90;;;1.80;;
71288;SDS011;59068;52.502;9.860;2022-10-16T07:21:21;2.10;;;1.97;;
71288;SDS011;59068;52.502;9.860;2022-10-16T07:23:52;2.53;;;2.17;;
71288;SDS011;59068;52.502;9.860;2022-10-16T07:26:21;2.93;;;2.17;;
71288;SDS011;59068;52.502;9.860;2022-10-16T07:28:48;2.33;;;1.73;;
71288;SDS011;59068;52.502;9.860;2022-10-16T07:31:14;2.43;;;1.73;;
71288;SDS011;59068;52.502;9.860;2022-10-16T07:33:41;2.10;;;1.57;;
71288;SDS011;59068;52.502;9.860;2022-10-16T07:36:09;1.73;;;1.63;;
71288;SDS011;59068;52.502;9.860;2022-10-16T07:38:35;3.57;;;1.80;;
71288;SDS011;59068;52.502;9.860;2022-10-16T07:41:03;3.23;;;1.53;;
71288;SDS011;59068;52.502;9.860;2022-10-16T07:43:29;1.40;;;1.30;;
71288;SDS011;59068;52.502;9.860;2022-10-16T07:45:56;1.30;;;1.20;;
71288;SDS011;59068;52.502;9.860;2022-10-16T07:48:23;3.30;;;1.40;;
71288;SDS011;59068;52.502;9.860;2022-10-16T07:50:49;2.47;;;1.20;;
71288;SDS011;59068;52.502;9.860;2022-10-16T07:53:15;2.03;;;1.50;;
71288;SDS011;59068;52.502;9.860;2022-10-16T07:55:42;1.73;;;1.30;;
71288;SDS011;59068;52.502;9.860;2022-10-16T07:58:07;1.10;;;1.10;;
71288;SDS011;59068;52.502;9.860;2022-10-16T08:00:32;1.70;;;1.20;;
71288;SDS011;59068;52.502;9.860;2022-10-16T08:02:59;1.43;;;1.00;;
71288;SDS011;59068;52.502;9.860;2022-10-16T08:05:26;1.70;;;1.20;;
71288;SDS011;59068;52.502;9.860;2022-10-16T08:07:56;1.20;;;1.10;;
71288;SDS011;59068;52.502;9.860;2022-10-16T08:10:22;1.90;;;0.80;;
71288;SDS011;59068;52.502;9.860;2022-10-16T08:12:51;0.70;;;0.70;;
71288;SDS011;59068;52.502;9.860;2022-10-16T08:15:16;2.00;;;1.10;;
71288;SDS011;59068;52.502;9.860;2022-10-16T08:17:43;1.40;;;1.03;;
71288;SDS011;59068;52.502;9.860;2022-10-16T08:20:09;1.23;;;1.00;;
71288;SDS011;59068;52.502;9.860;2022-10-16T08:22:36;1.90;;;0.90;;
71288;SDS011;59068;52.502;9.860;2022-10-16T08:25:02;0.73;;;0.73;;
71288;SDS011;59068;52.502;9.860;2022-10-16T08:27:31;1.60;;;0.83;;
71288;SDS011;59068;52.502;9.860;2022-10-16T08:29:58;2.37;;;0.80;;
71288;SDS011;59068;52.502;9.860;2022-10-16T08:32:24;1.00;;;0.90;;
71288;SDS011;59068;52.502;9.860;2022-10-16T08:34:51;1.23;;;0.70;;
71288;SDS011;59068;52.502;9.860;2022-10-16T08:37:16;0.77;;;0.70;;
71288;SDS011;59068;52.502;9.860;2022-10-16T08:39:42;0.83;;;0.60;;
71288;SDS011;59068;52.502;9.860;2022-10-16T08:42:20;2.17;;;0.67;;
71288;SDS011;59068;52.502;9.860;2022-10-16T08:48:00;1.10;;;0.67;;
71288;SDS011;59068;52.502;9.860;2022-10-16T08:50:31;0.57;;;0.57;;
71288;SDS011;59068;52.502;9.860;2022-10-16T08:52:59;2.33;;;0.90;;
71288;SDS011;59068;52.502;9.860;2022-10-16T08:58:20;0.60;;;0.60;;
71288;SDS011;59068;52.502;9.860;2022-10-16T09:00:55;1.90;;;0.60;;
71288;SDS011;59068;52.502;9.860;2022-10-16T09:12:00;1.13;;;0.70;;
71288;SDS011;59068;52.502;9.860;2022-10-16T09:20:19;0.67;;;0.60;;
71288;SDS011;59068;52.502;9.860;2022-10-16T09:22:48;1.10;;;0.47;;
71288;SDS011;59068;52.502;9.860;2022-10-16T09:25:16;0.60;;;0.60;;
71288;SDS011;59068;52.502;9.860;2022-10-16T09:27:44;1.53;;;0.40;;
71288;SDS011;59068;52.502;9.860;2022-10-16T09:30:14;0.73;;;0.47;;
71288;SDS011;59068;52.502;9.860;2022-10-16T09:32:41;1.03;;;0.50;;
71288;SDS011;59068;52.502;9.860;2022-10-16T09:35:18;1.03;;;0.60;;
71288;SDS011;59068;52.502;9.860;2022-10-16T09:37:48;0.93;;;0.50;;
71288;SDS011;59068;52.502;9.860;2022-10-16T09:40:33;0.50;;;0.40;;
71288;SDS011;59068;52.502;9.860;2022-10-16T09:46:06;0.93;;;0.60;;
71288;SDS011;59068;52.502;9.860;2022-10-16T09:53:48;0.93;;;0.40;;
71288;SDS011;59068;52.502;9.860;2022-10-16T09:56:22;1.60;;;0.47;;
71288;SDS011;59068;52.502;9.860;2022-10-16T09:58:59;1.20;;;0.53;;
71288;SDS011;59068;52.502;9.860;2022-10-16T10:02:11;0.83;;;0.63;;
71288;SDS011;59068;52.502;9.860;2022-10-16T10:04:18;1.00;;;0.50;;
71288;SDS011;59068;52.502;9.860;2022-10-16T10:12:28;0.90;;;0.50;;
71288;SDS011;59068;52.502;9.860;2022-10-16T10:15:03;0.53;;;0.43;;
71288;SDS011;59068;52.502;9.860;2022-10-16T10:17:30;1.40;;;0.53;;
71288;SDS011;59068;52.502;9.860;2022-10-16T10:20:00;3.73;;;0.60;;
71288;SDS011;59068;52.502;9.860;2022-10-16T10:22:46;1.70;;;0.40;;
71288;SDS011;59068;52.502;9.860;2022-10-16T10:33:37;1.47;;;0.40;;
71288;SDS011;59068;52.502;9.860;2022-10-16T10:39:02;2.77;;;0.50;;
71288;SDS011;59068;52.502;9.860;2022-10-16T10:50:21;1.90;;;0.43;;
71288;SDS011;59068;52.502;9.860;2022-10-16T10:59:01;1.63;;;0.40;;
71288;SDS011;59068;52.502;9.860;2022-10-16T11:07:04;1.53;;;0.40;;
71288;SDS011;59068;52.502;9.860;2022-10-16T11:09:33;2.43;;;0.70;;
71288;SDS011;59068;52.502;9.860;2022-10-16T11:12:21;1.50;;;0.40;;
71288;SDS011;59068;52.502;9.860;2022-10-16T11:17:42;1.13;;;0.40;;
71288;SDS011;59068;52.502;9.860;2022-10-16T11:20:34;1.60;;;0.40;;
71288;SDS011;59068;52.502;9.860;2022-10-16T11:23:10;0.57;;;0.43;;
71288;SDS011;59068;52.502;9.860;2022-10-16T11:25:38;2.17;;;0.50;;
71288;SDS011;59068;52.502;9.860;2022-10-16T11:28:18;0.83;;;0.43;;
71288;SDS011;59068;52.502;9.860;2022-10-16T11:30:57;1.77;;;0.47;;
71288;SDS011;59068;52.502;9.860;2022-10-16T11:44:06;1.33;;;0.40;;
71288;SDS011;59068;52.502;9.860;2022-10-16T11:46:42;1.70;;;0.47;;
71288;SDS011;59068;52.502;9.860;2022-10-16T11:49:14;1.33;;;0.40;;
71288;SDS011;59068;52.502;9.860;2022-10-16T11:54:49;0.87;;;0.30;;
71288;SDS011;59068;52.502;9.860;2022-10-16T11:58:03;2.87;;;0.40;;
71288;SDS011;59068;52.502;9.860;2022-10-16T12:09:44;0.77;;;0.63;;
71288;SDS011;59068;52.502;9.860;2022-10-16T12:15:20;1.33;;;0.47;;
71288;SDS011;59068;52.502;9.860;2022-10-16T12:18:07;2.23;;;0.50;;
71288;SDS011;59068;52.502;9.860;2022-10-16T12:20:54;0.80;;;0.40;;
71288;SDS011;59068;52.502;9.860;2022-10-16T12:23:23;1.83;;;0.50;;
71288;SDS011;59068;52.502;9.860;2022-10-16T12:25:57;0.83;;;0.37;;
71288;SDS011;59068;52.502;9.860;2022-10-16T12:28:28;1.40;;;0.30;;
71288;SDS011;59068;52.502;9.860;2022-10-16T12:31:00;1.27;;;0.50;;
71288;SDS011;59068;52.502;9.860;2022-10-16T12:33:30;1.07;;;0.50;;
71288;SDS011;59068;52.502;9.860;2022-10-16T12:36:02;0.80;;;0.43;;
71288;SDS011;59068;52.502;9.860;2022-10-16T12:44:23;2.50;;;0.50;;
71288;SDS011;59068;52.502;9.860;2022-10-16T12:46:50;1.90;;;0.60;;
71288;SDS011;59068;52.502;9.860;2022-10-16T12:49:32;0.93;;;0.40;;
71288;SDS011;59068;52.502;9.860;2022-10-16T12:52:02;0.60;;;0.43;;
71288;SDS011;59068;52.502;9.860;2022-10-16T12:54:34;3.07;;;0.50;;
71288;SDS011;59068;52.502;9.860;2022-10-16T13:04:41;1.57;;;0.40;;
71288;SDS011;59068;52.502;9.860;2022-10-16T13:10:10;1.07;;;0.50;;
71288;SDS011;59068;52.502;9.860;2022-10-16T13:12:59;0.80;;;0.70;;
71288;SDS011;59068;52.502;9.860;2022-10-16T13:15:46;0.83;;;0.40;;
71288;SDS011;59068;52.502;9.860;2022-10-16T13:24:36;0.80;;;0.60;;
71288;SDS011;59068;52.502;9.860;2022-10-16T13:27:38;0.50;;;0.50;;
71288;SDS011;59068;52.502;9.860;2022-10-16T13:30:30;1.87;;;0.60;;
71288;SDS011;59068;52.502;9.860;2022-10-16T13:35:47;1.20;;;0.40;;
71288;SDS011;59068;52.502;9.860;2022-10-16T13:38:21;1.30;;;0.50;;
71288;SDS011;59068;52.502;9.860;2022-10-16T13:40:49;0.40;;;0.30;;
71288;SDS011;59068;52.502;9.860;2022-10-16T13:43:19;1.00;;;0.50;;
71288;SDS011;59068;52.502;9.860;2022-10-16T13:45:54;0.57;;;0.50;;
71288;SDS011;59068;52.502;9.860;2022-10-16T13:48:25;1.37;;;0.90;;
71288;SDS011;59068;52.502;9.860;2022-10-16T13:51:11;1.30;;;0.70;;
71288;SDS011;59068;52.502;9.860;2022-10-16T13:53:40;2.23;;;0.53;;
71288;SDS011;59068;52.502;9.860;2022-10-16T13:56:07;1.37;;;1.00;;
71288;SDS011;59068;52.502;9.860;2022-10-16T13:58:37;2.77;;;2.10;;
71288;SDS011;59068;52.502;9.860;2022-10-16T14:01:03;1.63;;;0.60;;
71288;SDS011;59068;52.502;9.860;2022-10-16T14:03:33;1.83;;;0.60;;
71288;SDS011;59068;52.502;9.860;2022-10-16T14:06:02;1.80;;;1.17;;
71288;SDS011;59068;52.502;9.860;2022-10-16T14:08:30;4.27;;;2.53;;
71288;SDS011;59068;52.502;9.860;2022-10-16T14:10:57;1.07;;;0.90;;
71288;SDS011;59068;52.502;9.860;2022-10-16T14:13:35;1.33;;;0.83;;
71288;SDS011;59068;52.502;9.860;2022-10-16T14:16:09;2.37;;;0.43;;
71288;SDS011;59068;52.502;9.860;2022-10-16T14:18:37;1.80;;;0.50;;
71288;SDS011;59068;52.502;9.860;2022-10-16T14:21:07;1.70;;;0.70;;
71288;SDS011;59068;52.502;9.860;2022-10-16T14:23:39;3.60;;;0.50;;
71288;SDS011;59068;52.502;9.860;2022-10-16T14:26:13;0.43;;;0.40;;
71288;SDS011;59068;52.502;9.860;2022-10-16T14:28:45;1.50;;;0.80;;
71288;SDS011;59068;52.502;9.860;2022-10-16T14:31:31;2.27;;;0.93;;
71288;SDS011;59068;52.502;9.860;2022-10-16T14:34:01;0.43;;;0.40;;
71288;SDS011;59068;52.502;9.860;2022-10-16T14:36:31;1.23;;;0.47;;
71288;SDS011;59068;52.502;9.860;2022-10-16T14:39:03;1.07;;;0.43;;
71288;SDS011;59068;52.502;9.860;2022-10-16T14:41:32;1.80;;;0.70;;
71288;SDS011;59068;52.502;9.860;2022-10-16T14:44:02;2.63;;;0.60;;
71288;SDS011;59068;52.502;9.860;2022-10-16T14:46:30;1.47;;;0.60;;
71288;SDS011;59068;52.502;9.860;2022-10-16T14:49:03;1.77;;;0.50;;
71288;SDS011;59068;52.502;9.860;2022-10-16T14:51:36;2.57;;;0.50;;
71288;SDS011;59068;52.502;9.860;2022-10-16T14:54:03;0.90;;;0.50;;
71288;SDS011;59068;52.502;9.860;2022-10-16T14:56:30;1.53;;;0.73;;
71288;SDS011;59068;52.502;9.860;2022-10-16T14:59:10;2.33;;;0.60;;
71288;SDS011;59068;52.502;9.860;2022-10-16T15:01:39;2.10;;;1.43;;
71288;SDS011;59068;52.502;9.860;2022-10-16T15:04:07;2.40;;;1.40;;
71288;SDS011;59068;52.502;9.860;2022-10-16T15:06:35;4.53;;;2.23;;
71288;SDS011;59068;52.502;9.860;2022-10-16T15:09:02;2.77;;;1.60;;
71288;SDS011;59068;52.502;9.860;2022-10-16T15:11:27;1.70;;;1.10;;
71288;SDS011;59068;52.502;9.860;2022-10-16T15:13:54;2.10;;;1.30;;
71288;SDS011;59068;52.502;9.860;2022-10-16T15:16:21;2.77;;;1.50;;
71288;SDS011;59068;52.502;9.860;2022-10-16T15:18:48;3.03;;;1.10;;
71288;SDS011;59068;52.502;9.860;2022-10-16T15:21:19;0.83;;;0.60;;
71288;SDS011;59068;52.502;9.860;2022-10-16T15:23:49;2.73;;;0.70;;
71288;SDS011;59068;52.502;9.860;2022-10-16T15:26:17;1.43;;;0.70;;
71288;SDS011;59068;52.502;9.860;2022-10-16T15:28:43;0.73;;;0.50;;
71288;SDS011;59068;52.502;9.860;2022-10-16T15:31:10;2.07;;;0.90;;
71288;SDS011;59068;52.502;9.860;2022-10-16T15:33:37;1.47;;;0.83;;
71288;SDS011;59068;52.502;9.860;2022-10-16T15:36:03;2.30;;;0.83;;
71288;SDS011;59068;52.502;9.860;2022-10-16T15:38:30;1.27;;;1.00;;
71288;SDS011;59068;52.502;9.860;2022-10-16T15:40:55;1.57;;;0.83;;
71288;SDS011;59068;52.502;9.860;2022-10-16T15:43:21;3.27;;;1.13;;
71288;SDS011;59068;52.502;9.860;2022-10-16T15:45:58;1.43;;;0.70;;
71288;SDS011;59068;52.502;9.860;2022-10-16T15:48:26;2.67;;;1.10;;
71288;SDS011;59068;52.502;9.860;2022-10-16T15:50:53;2.73;;;1.00;;
71288;SDS011;59068;52.502;9.860;2022-10-16T15:53:18;1.90;;;1.20;;
71288;SDS011;59068;52.502;9.860;2022-10-16T15:55:44;3.50;;;1.60;;
71288;SDS011;59068;52.502;9.860;2022-10-16T15:58:10;32.77;;;29.27;;
71288;SDS011;59068;52.502;9.860;2022-10-16T16:00:35;26.87;;;24.27;;
71288;SDS011;59068;52.502;9.860;2022-10-16T16:03:02;9.07;;;8.23;;
71288;SDS011;59068;52.502;9.860;2022-10-16T16:05:29;14.47;;;13.07;;
71288;SDS011;59068;52.502;9.860;2022-10-16T16:07:55;13.30;;;11.90;;
71288;SDS011;59068;52.502;9.860;2022-10-16T16:10:22;18.47;;;16.77;;
71288;SDS011;59068;52.502;9.860;2022-10-16T16:12:49;11.73;;;10.67;;
71288;SDS011;59068;52.502;9.860;2022-10-16T16:15:19;9.33;;;8.43;;
71288;SDS011;59068;52.502;9.860;2022-10-16T16:17:45;10.40;;;9.30;;
71288;SDS011;59068;52.502;9.860;2022-10-16T16:20:11;7.97;;;7.27;;
71288;SDS011;59068;52.502;9.860;2022-10-16T16:22:38;9.23;;;8.30;;
71288;SDS011;59068;52.502;9.860;2022-10-16T16:25:05;8.00;;;6.43;;
71288;SDS011;59068;52.502;9.860;2022-10-16T16:27:32;6.60;;;6.00;;
71288;SDS011;59068;52.502;9.860;2022-10-16T16:30:01;5.90;;;5.37;;
71288;SDS011;59068;52.502;9.860;2022-10-16T16:32:30;3.83;;;3.40;;
71288;SDS011;59068;52.502;9.860;2022-10-16T16:34:55;5.57;;;4.03;;
71288;SDS011;59068;52.502;9.860;2022-10-16T16:37:21;3.63;;;3.33;;
71288;SDS011;59068;52.502;9.860;2022-10-16T16:39:48;5.00;;;3.50;;
71288;SDS011;59068;52.502;9.860;2022-10-16T16:42:13;3.67;;;3.20;;
71288;SDS011;59068;52.502;9.860;2022-10-16T16:44:39;4.47;;;2.80;;
71288;SDS011;59068;52.502;9.860;2022-10-16T16:47:06;4.27;;;2.70;;
71288;SDS011;59068;52.502;9.860;2022-10-16T16:49:31;3.17;;;2.60;;
71288;SDS011;59068;52.502;9.860;2022-10-16T16:51:57;4.10;;;2.60;;
71288;SDS011;59068;52.502;9.860;2022-10-16T16:54:24;3.43;;;2.47;;
71288;SDS011;59068;52.502;9.860;2022-10-16T16:56:49;4.07;;;2.47;;
71288;SDS011;59068;52.502;9.860;2022-10-16T16:59:17;5.67;;;3.03;;
71288;SDS011;59068;52.502;9.860;2022-10-16T17:01:44;4.93;;;3.20;;
71288;SDS011;59068;52.502;9.860;2022-10-16T17:04:10;5.20;;;3.40;;
71288;SDS011;59068;52.502;9.860;2022-10-16T17:06:39;5.53;;;3.80;;
71288;SDS011;59068;52.502;9.860;2022-10-16T17:09:05;4.80;;;3.80;;
71288;SDS011;59068;52.502;9.860;2022-10-16T17:11:33;6.87;;;4.40;;
71288;SDS011;59068;52.502;9.860;2022-10-16T17:13:59;8.20;;;5.07;;
71288;SDS011;59068;52.502;9.860;2022-10-16T17:16:28;7.37;;;5.30;;
71288;SDS011;59068;52.502;9.860;2022-10-16T17:18:55;5.93;;;5.10;;